Time;durP1;ratioP1;P1;durP2;ratioP2;P2;SDS_P1;SDS_P2;PMS_P1;PMS_P2;Temp;Humidity;BMP_temperature;BMP_pressure;BME280_temperature;BME280_humidity;BME280_pressure;Samples;Min_cycle;Max_cycle;Signal;HPM_P1;HPM_P2
2021/05/28 00:01:34;;;;;;;1.50;1.10;;;10.10;98.20;;;;;;5009390;28;20479;-83
2021/05/28 00:04:00;;;;;;;1.53;1.10;;;10.10;98.20;;;;;;5020194;28;20908;-83
2021/05/28 00:06:28;;;;;;;1.50;1.20;;;10.10;98.20;;;;;;5005608;28;20479;-83
2021/05/28 00:08:54;;;;;;;1.50;1.10;;;10.10;98.20;;;;;;5022648;28;20551;-83
2021/05/28 00:11:21;;;;;;;1.50;1.00;;;10.10;98.20;;;;;;5007148;28;20486;-83
2021/05/28 00:13:47;;;;;;;1.50;1.13;;;10.20;98.20;;;;;;5023093;28;20460;-83
2021/05/28 00:16:15;;;;;;;1.57;1.10;;;10.20;98.20;;;;;;5005870;28;20487;-83
2021/05/28 00:18:41;;;;;;;1.50;1.10;;;10.20;98.20;;;;;;5021296;28;20497;-83
2021/05/28 00:21:07;;;;;;;1.60;1.27;;;10.30;98.20;;;;;;5004043;28;20532;-83
2021/05/28 00:23:33;;;;;;;1.53;1.20;;;10.30;98.20;;;;;;5024098;28;20863;-83
2021/05/28 00:26:00;;;;;;;1.50;1.10;;;10.30;98.20;;;;;;5004232;28;20507;-83
2021/05/28 00:28:26;;;;;;;1.50;1.20;;;10.30;98.20;;;;;;5021227;28;20472;-83
2021/05/28 00:30:52;;;;;;;1.50;1.10;;;10.30;98.20;;;;;;5002250;28;20461;-83
2021/05/28 00:33:19;;;;;;;1.53;1.10;;;10.40;98.20;;;;;;5025820;28;20969;-83
2021/05/28 00:35:46;;;;;;;1.50;1.10;;;10.40;98.20;;;;;;5011894;28;20480;-83
2021/05/28 00:38:12;;;;;;;1.50;1.10;;;10.40;98.20;;;;;;5029184;28;20495;-83
2021/05/28 00:40:38;;;;;;;1.50;1.00;;;10.30;98.20;;;;;;5013395;28;20467;-83
2021/05/28 00:43:05;;;;;;;1.50;1.20;;;10.30;98.20;;;;;;5018153;28;20564;-83
2021/05/28 00:45:31;;;;;;;1.50;1.10;;;10.30;98.20;;;;;;5009780;28;20504;-83
2021/05/28 00:47:58;;;;;;;1.53;1.10;;;10.30;98.20;;;;;;5017034;28;20509;-83
2021/05/28 00:50:29;;;;;;;1.50;1.10;;;10.30;98.20;;;;;;5012674;28;20495;-84
2021/05/28 00:52:57;;;;;;;1.50;1.10;;;10.30;98.20;;;;;;5001700;28;20484;-83
2021/05/28 00:55:24;;;;;;;1.50;1.10;;;10.20;98.20;;;;;;5010364;28;20552;-83
2021/05/28 00:57:50;;;;;;;1.50;1.10;;;10.20;98.20;;;;;;5016048;28;20486;-83
2021/05/28 01:00:17;;;;;;;1.50;1.00;;;10.20;98.20;;;;;;5012167;28;20468;-84
2021/05/28 01:02:45;;;;;;;1.50;1.13;;;10.20;98.20;;;;;;5015214;28;20471;-83
2021/05/28 01:05:12;;;;;;;1.50;1.10;;;10.10;98.20;;;;;;5012205;28;20484;-83
2021/05/28 01:07:39;;;;;;;1.50;1.10;;;10.10;98.20;;;;;;5015755;28;21164;-83
2021/05/28 01:10:06;;;;;;;1.60;1.20;;;10.10;98.20;;;;;;5013146;28;20468;-83
2021/05/28 01:12:32;;;;;;;1.50;1.10;;;10.10;98.20;;;;;;5014198;28;20479;-83
2021/05/28 01:15:00;;;;;;;1.50;1.10;;;10.10;98.20;;;;;;5013405;28;20524;-83
2021/05/28 01:17:27;;;;;;;1.60;1.30;;;10.10;98.20;;;;;;5014253;28;20475;-84
2021/05/28 01:19:53;;;;;;;1.60;1.10;;;10.10;98.20;;;;;;5012676;28;21008;-83
2021/05/28 01:22:21;;;;;;;1.60;1.20;;;10.10;98.20;;;;;;5013946;28;20565;-83
2021/05/28 01:24:48;;;;;;;1.50;1.10;;;10.00;98.20;;;;;;5014536;28;20460;-83
2021/05/28 01:27:16;;;;;;;1.53;1.20;;;10.00;98.20;;;;;;5008708;28;20922;-84
2021/05/28 01:29:42;;;;;;;1.50;1.10;;;10.00;98.20;;;;;;5009485;28;20827;-83
2021/05/28 01:32:09;;;;;;;1.57;1.20;;;9.90;98.20;;;;;;5014730;28;20536;-84
2021/05/28 01:34:35;;;;;;;1.57;1.20;;;9.90;98.20;;;;;;5014399;28;20468;-83
2021/05/28 01:37:02;;;;;;;1.60;1.20;;;9.80;98.20;;;;;;5010288;28;20486;-85
2021/05/28 01:39:29;;;;;;;1.50;1.20;;;9.80;98.20;;;;;;5018598;28;20592;-84
2021/05/28 01:41:55;;;;;;;1.50;1.10;;;9.70;98.20;;;;;;5010478;28;20483;-84
2021/05/28 01:44:22;;;;;;;1.57;1.20;;;9.70;98.20;;;;;;5016148;28;20570;-83
2021/05/28 01:46:49;;;;;;;1.60;1.20;;;9.70;98.20;;;;;;5009989;28;20875;-83
2021/05/28 01:49:15;;;;;;;1.50;1.17;;;9.60;98.20;;;;;;5018837;28;20456;-84
2021/05/28 01:51:49;;;;;;;1.53;1.20;;;9.50;98.20;;;;;;5007637;28;20545;-83
2021/05/28 01:54:15;;;;;;;1.60;1.30;;;9.50;98.20;;;;;;5016987;28;20476;-84
2021/05/28 01:56:45;;;;;;;1.57;1.20;;;9.50;98.20;;;;;;5008227;28;21012;-84
2021/05/28 01:59:17;;;;;;;1.53;1.10;;;9.40;98.20;;;;;;5018362;28;20491;-84
2021/05/28 02:01:46;;;;;;;1.57;1.20;;;9.40;98.20;;;;;;5018225;28;20479;-83
2021/05/28 02:04:12;;;;;;;1.60;1.30;;;9.30;98.20;;;;;;5029508;28;20500;-83
2021/05/28 02:06:38;;;;;;;1.57;1.20;;;9.30;98.20;;;;;;5016715;28;20559;-83
2021/05/28 02:09:05;;;;;;;1.60;1.20;;;9.20;98.20;;;;;;5027865;28;20515;-83
2021/05/28 02:11:31;;;;;;;1.60;1.30;;;9.20;98.20;;;;;;5014156;28;20517;-83
2021/05/28 02:13:58;;;;;;;1.60;1.30;;;9.20;98.20;;;;;;5027852;28;20536;-83
2021/05/28 02:16:25;;;;;;;1.53;1.20;;;9.10;98.20;;;;;;5016416;28;20481;-83
2021/05/28 02:18:51;;;;;;;1.60;1.20;;;9.10;98.20;;;;;;5032047;28;20734;-83
2021/05/28 02:21:17;;;;;;;1.50;1.10;;;9.00;98.20;;;;;;5019020;28;20466;-83
2021/05/28 02:23:44;;;;;;;1.53;1.10;;;9.00;98.20;;;;;;5031611;28;20460;-83
2021/05/28 02:26:10;;;;;;;1.50;1.20;;;8.90;98.20;;;;;;5018519;28;20572;-83
2021/05/28 02:28:36;;;;;;;1.60;1.30;;;8.90;98.20;;;;;;5040468;28;20456;-83
2021/05/28 02:31:03;;;;;;;1.53;1.20;;;8.90;98.20;;;;;;5019266;28;20468;-83
2021/05/28 02:33:30;;;;;;;1.60;1.40;;;8.80;98.20;;;;;;5040472;28;20470;-83
2021/05/28 02:35:56;;;;;;;1.60;1.20;;;8.80;98.20;;;;;;5019149;28;20551;-83
2021/05/28 02:38:22;;;;;;;1.53;1.23;;;8.80;98.20;;;;;;5041847;28;20479;-83
2021/05/28 02:40:49;;;;;;;1.60;1.20;;;8.80;98.20;;;;;;5017020;28;20460;-83
2021/05/28 02:43:15;;;;;;;1.60;1.33;;;8.70;98.20;;;;;;5041382;28;20519;-83
2021/05/28 02:45:41;;;;;;;1.60;1.30;;;8.70;98.20;;;;;;5027462;28;20834;-83
2021/05/28 02:48:09;;;;;;;1.57;1.17;;;8.70;98.20;;;;;;5034676;28;20490;-83
2021/05/28 02:50:35;;;;;;;1.53;1.20;;;8.70;98.20;;;;;;5026949;28;20808;-83
2021/05/28 02:53:01;;;;;;;1.60;1.20;;;8.60;98.20;;;;;;5030369;28;20570;-83
2021/05/28 02:55:29;;;;;;;1.50;1.20;;;8.60;98.20;;;;;;5025758;28;20511;-82
2021/05/28 02:57:55;;;;;;;1.50;1.10;;;8.60;98.20;;;;;;5032231;28;20484;-83
2021/05/28 03:00:23;;;;;;;1.53;1.20;;;8.60;98.20;;;;;;5025246;28;20525;-83
2021/05/28 03:02:49;;;;;;;1.57;1.20;;;8.60;98.20;;;;;;5034002;28;20479;-83
2021/05/28 03:05:17;;;;;;;1.60;1.20;;;8.60;98.20;;;;;;5027641;28;20480;-83
2021/05/28 03:07:44;;;;;;;1.60;1.27;;;8.60;98.20;;;;;;5030556;28;20482;-83
2021/05/28 03:10:12;;;;;;;1.60;1.30;;;8.60;98.20;;;;;;5026952;28;20474;-83
2021/05/28 03:12:38;;;;;;;1.53;1.20;;;8.60;98.20;;;;;;5029527;28;20518;-83
2021/05/28 03:15:06;;;;;;;1.53;1.20;;;8.60;98.20;;;;;;5022458;28;20472;-83
2021/05/28 03:17:33;;;;;;;1.57;1.20;;;8.50;98.20;;;;;;5028656;28;20525;-83
2021/05/28 03:20:00;;;;;;;1.50;1.20;;;8.50;98.20;;;;;;5029559;28;20483;-83
2021/05/28 03:22:31;;;;;;;1.60;1.20;;;8.50;98.20;;;;;;5030129;28;20544;-83
2021/05/28 03:24:57;;;;;;;1.53;1.20;;;8.40;98.20;;;;;;5029329;28;20494;-82
2021/05/28 03:27:24;;;;;;;1.50;1.20;;;8.40;98.20;;;;;;5029346;28;20528;-82
2021/05/28 03:29:50;;;;;;;1.57;1.23;;;8.30;98.20;;;;;;5030964;28;20480;-82
2021/05/28 03:32:16;;;;;;;1.57;1.20;;;8.30;98.20;;;;;;5023141;28;20489;-84
2021/05/28 03:35:05;;;;;;;1.60;1.40;;;8.30;98.20;;;;;;5030606;28;20528;-82
2021/05/28 03:37:33;;;;;;;1.60;1.20;;;8.30;98.20;;;;;;5027318;28;20874;-82
2021/05/28 03:40:00;;;;;;;1.53;1.30;;;8.30;98.20;;;;;;5031167;28;20833;-82
2021/05/28 03:42:27;;;;;;;1.50;1.13;;;8.30;98.20;;;;;;5031321;28;20479;-83
2021/05/28 03:44:53;;;;;;;1.57;1.27;;;8.30;98.20;;;;;;5029741;28;20464;-82
2021/05/28 03:47:20;;;;;;;1.57;1.30;;;8.30;98.20;;;;;;5027476;28;20621;-82
2021/05/28 03:49:47;;;;;;;1.57;1.27;;;8.40;98.20;;;;;;5030440;28;20457;-82
2021/05/28 03:52:13;;;;;;;1.57;1.20;;;8.40;98.20;;;;;;5025806;28;21044;-83
2021/05/28 03:54:58;;;;;;;1.53;1.30;;;8.40;98.20;;;;;;5022754;28;21147;-83
2021/05/28 03:57:25;;;;;;;1.53;1.20;;;8.40;98.20;;;;;;5028623;28;20475;-83
2021/05/28 03:59:51;;;;;;;1.57;1.20;;;8.40;98.20;;;;;;5032204;28;20508;-83
2021/05/28 04:02:17;;;;;;;1.50;1.20;;;8.40;98.20;;;;;;5028924;28;20547;-83
2021/05/28 04:04:45;;;;;;;1.60;1.27;;;8.40;98.20;;;;;;5032611;28;20475;-82
2021/05/28 04:07:11;;;;;;;1.60;1.40;;;8.50;98.20;;;;;;5028860;28;20510;-83
2021/05/28 04:09:37;;;;;;;1.50;1.20;;;8.50;98.20;;;;;;5030881;28;20498;-83
2021/05/28 04:12:05;;;;;;;1.53;1.20;;;8.50;98.20;;;;;;5025981;28;20483;-84
2021/05/28 04:14:31;;;;;;;1.53;1.30;;;8.50;98.20;;;;;;5022697;28;20483;-83
2021/05/28 04:16:58;;;;;;;1.50;1.20;;;8.50;98.20;;;;;;5023701;28;20532;-83
2021/05/28 04:19:24;;;;;;;1.53;1.30;;;8.50;98.20;;;;;;5031145;28;20488;-83
2021/05/28 04:21:50;;;;;;;1.60;1.30;;;8.50;98.20;;;;;;5022533;28;20558;-83
2021/05/28 04:24:17;;;;;;;1.60;1.30;;;8.50;98.20;;;;;;5029910;28;20634;-83
2021/05/28 04:26:43;;;;;;;1.50;1.20;;;8.50;98.20;;;;;;5018318;28;20511;-83
2021/05/28 04:29:10;;;;;;;1.53;1.20;;;8.50;98.20;;;;;;5029738;28;20464;-83
2021/05/28 04:31:37;;;;;;;1.50;1.20;;;8.60;98.20;;;;;;5020273;28;20479;-82
2021/05/28 04:34:03;;;;;;;1.60;1.20;;;8.60;98.20;;;;;;5031204;28;20520;-82
2021/05/28 04:36:30;;;;;;;1.50;1.23;;;8.60;98.20;;;;;;5019762;28;20616;-83
2021/05/28 04:38:56;;;;;;;1.53;1.20;;;8.70;98.20;;;;;;5033173;28;20484;-83
2021/05/28 04:41:25;;;;;;;1.60;1.20;;;8.70;98.20;;;;;;5018608;28;20485;-83
2021/05/28 04:43:52;;;;;;;1.60;1.20;;;8.80;98.20;;;;;;5034256;28;20476;-83
2021/05/28 04:46:19;;;;;;;1.50;1.20;;;8.90;98.20;;;;;;5017839;28;20490;-83
2021/05/28 04:48:45;;;;;;;1.50;1.20;;;9.00;98.20;;;;;;5035878;28;20511;-82
2021/05/28 04:51:11;;;;;;;1.53;1.20;;;9.10;98.20;;;;;;5019291;28;20571;-82
2021/05/28 04:53:38;;;;;;;1.53;1.20;;;9.30;98.20;;;;;;5034290;28;20472;-82
2021/05/28 04:56:05;;;;;;;1.53;1.20;;;9.40;98.20;;;;;;5013415;28;21250;-82
2021/05/28 04:58:31;;;;;;;1.53;1.20;;;9.50;98.20;;;;;;5026893;28;20490;-83
2021/05/28 05:00:57;;;;;;;1.53;1.20;;;9.60;98.20;;;;;;5015988;28;20495;-82
2021/05/28 05:03:24;;;;;;;1.57;1.10;;;9.80;98.20;;;;;;5035206;28;20730;-83
2021/05/28 05:05:51;;;;;;;1.57;1.20;;;10.00;98.20;;;;;;5013475;28;20532;-82
2021/05/28 05:08:17;;;;;;;1.53;1.17;;;10.20;98.20;;;;;;5036830;28;20457;-83
2021/05/28 05:10:43;;;;;;;1.50;1.10;;;10.30;98.20;;;;;;5022763;28;20524;-83
2021/05/28 05:13:11;;;;;;;1.53;1.20;;;10.60;98.20;;;;;;5025208;28;20484;-82
2021/05/28 05:15:38;;;;;;;1.60;1.13;;;10.80;98.20;;;;;;5021846;28;20850;-82
2021/05/28 05:18:06;;;;;;;1.50;1.10;;;11.00;98.20;;;;;;5026915;28;20533;-83
2021/05/28 05:20:33;;;;;;;1.53;1.13;;;11.20;98.20;;;;;;5023789;28;20486;-83
2021/05/28 05:23:00;;;;;;;1.53;1.00;;;11.40;98.20;;;;;;5029686;28;20491;-83
2021/05/28 05:25:26;;;;;;;1.53;1.10;;;11.60;98.20;;;;;;5023124;28;20480;-82
2021/05/28 05:27:53;;;;;;;1.57;1.10;;;11.80;98.20;;;;;;5027533;28;20940;-82
2021/05/28 05:30:20;;;;;;;1.53;1.10;;;11.80;98.20;;;;;;5007760;28;20864;-81
2021/05/28 05:32:47;;;;;;;1.50;1.00;;;11.90;98.20;;;;;;5013641;28;20479;-82
2021/05/28 05:35:14;;;;;;;1.57;1.10;;;12.00;98.20;;;;;;5014264;28;20484;-81
2021/05/28 05:37:41;;;;;;;1.50;1.10;;;12.10;98.20;;;;;;5014078;28;20510;-81
2021/05/28 05:40:09;;;;;;;1.50;1.00;;;12.30;98.20;;;;;;5011597;28;20580;-80
2021/05/28 05:42:37;;;;;;;1.57;1.10;;;12.30;98.20;;;;;;5014178;28;20483;-81
2021/05/28 05:45:05;;;;;;;1.50;1.10;;;12.50;98.20;;;;;;5009812;28;20551;-81
2021/05/28 05:47:32;;;;;;;1.50;1.00;;;12.50;98.20;;;;;;5013071;28;20483;-81
2021/05/28 05:49:58;;;;;;;1.53;1.10;;;12.60;98.20;;;;;;5010298;28;20495;-81
2021/05/28 05:52:24;;;;;;;1.50;1.00;;;12.70;98.20;;;;;;5014210;28;20533;-83
2021/05/28 05:54:51;;;;;;;1.50;1.00;;;12.80;98.20;;;;;;5003234;28;20925;-81
2021/05/28 05:57:18;;;;;;;1.50;1.07;;;12.90;98.20;;;;;;4997757;28;20483;-81
2021/05/28 05:59:44;;;;;;;1.50;1.00;;;12.90;98.20;;;;;;5009831;28;21015;-81
2021/05/28 06:02:10;;;;;;;1.57;1.00;;;13.00;98.20;;;;;;5010111;28;20479;-80
2021/05/28 06:04:37;;;;;;;1.53;1.00;;;13.20;98.20;;;;;;5010522;28;20989;-80
2021/05/28 06:07:03;;;;;;;1.60;1.00;;;13.50;98.20;;;;;;5009705;28;20525;-81
2021/05/28 06:09:29;;;;;;;1.70;1.30;;;13.70;98.20;;;;;;5014467;28;20599;-80
2021/05/28 06:11:58;;;;;;;1.50;1.07;;;13.90;98.20;;;;;;5009703;28;20487;-81
2021/05/28 06:14:24;;;;;;;1.50;1.00;;;14.10;98.20;;;;;;5015212;28;20467;-80
2021/05/28 06:16:51;;;;;;;1.57;1.00;;;14.30;98.20;;;;;;5005922;28;20498;-80
2021/05/28 06:19:17;;;;;;;1.50;0.97;;;14.40;98.20;;;;;;5014018;28;20492;-80
2021/05/28 06:21:44;;;;;;;1.50;1.00;;;14.50;98.20;;;;;;5006043;28;20930;-80
2021/05/28 06:24:11;;;;;;;1.50;1.00;;;14.60;98.20;;;;;;5016412;28;20526;-81
2021/05/28 06:26:37;;;;;;;1.50;1.00;;;14.80;98.20;;;;;;5004089;28;20487;-81
2021/05/28 06:29:06;;;;;;;1.50;1.00;;;15.00;98.20;;;;;;5017503;28;21002;-81
2021/05/28 06:31:33;;;;;;;1.60;1.20;;;15.10;98.20;;;;;;5005616;28;21092;-81
2021/05/28 06:34:00;;;;;;;1.60;1.10;;;15.20;98.20;;;;;;5015828;28;20563;-81
2021/05/28 06:36:26;;;;;;;1.57;1.00;;;15.30;98.20;;;;;;5003000;28;20495;-80
2021/05/28 06:38:53;;;;;;;1.53;0.90;;;15.60;98.20;;;;;;5018758;28;20518;-80
2021/05/28 06:41:19;;;;;;;1.60;1.10;;;15.80;97.60;;;;;;5003177;28;20478;-80
2021/05/28 06:43:45;;;;;;;1.50;0.90;;;15.80;96.50;;;;;;5018880;28;20851;-80
2021/05/28 06:46:13;;;;;;;1.50;1.00;;;16.00;95.90;;;;;;5001352;28;20490;-82
2021/05/28 06:48:39;;;;;;;1.50;1.00;;;16.10;96.40;;;;;;5021153;28;20985;-82
2021/05/28 06:51:05;;;;;;;1.50;1.00;;;16.20;95.30;;;;;;5000953;28;21120;-82
2021/05/28 06:53:31;;;;;;;1.50;0.90;;;16.40;94.60;;;;;;5020885;28;20905;-82
2021/05/28 06:56:00;;;;;;;1.60;1.00;;;16.60;95.20;;;;;;5001246;28;20636;-82
2021/05/28 06:58:27;;;;;;;1.50;0.90;;;16.80;93.10;;;;;;5022245;28;20480;-81
2021/05/28 07:00:53;;;;;;;1.53;0.97;;;16.90;93.10;;;;;;5000260;28;20519;-82
2021/05/28 07:03:20;;;;;;;1.53;0.93;;;17.20;93.60;;;;;;5022375;28;20476;-81
2021/05/28 07:05:47;;;;;;;1.53;0.93;;;17.40;92.00;;;;;;5001224;28;20483;-81
2021/05/28 07:08:13;;;;;;;1.53;1.00;;;17.70;91.30;;;;;;5028518;28;20476;-80
2021/05/28 07:10:39;;;;;;;1.53;0.90;;;17.80;90.00;;;;;;5012044;28;20841;-80
2021/05/28 07:13:06;;;;;;;1.50;1.00;;;17.80;89.00;;;;;;5017809;28;21012;-80
2021/05/28 07:15:32;;;;;;;1.50;0.90;;;17.60;88.60;;;;;;5013853;28;20476;-80
2021/05/28 07:17:58;;;;;;;1.70;1.53;;;17.70;88.50;;;;;;5015868;28;20552;-79
2021/05/28 07:20:25;;;;;;;1.50;0.90;;;17.80;89.40;;;;;;5013000;28;20492;-80
2021/05/28 07:22:52;;;;;;;1.57;1.00;;;17.90;88.80;;;;;;5017767;28;20566;-80
2021/05/28 07:25:18;;;;;;;1.50;0.90;;;18.20;87.90;;;;;;5012915;28;20479;-80
2021/05/28 07:27:45;;;;;;;1.60;1.13;;;18.30;87.90;;;;;;5015955;28;20510;-80
2021/05/28 07:30:12;;;;;;;1.57;0.90;;;18.60;87.90;;;;;;5013218;28;20954;-80
2021/05/28 07:32:39;;;;;;;1.50;0.90;;;18.80;87.30;;;;;;5014859;28;20482;-80
2021/05/28 07:35:07;;;;;;;1.50;0.90;;;18.90;87.60;;;;;;5013998;28;20480;-80
2021/05/28 07:37:35;;;;;;;1.50;0.90;;;18.90;85.20;;;;;;5014165;28;21079;-80
2021/05/28 07:40:01;;;;;;;1.50;0.90;;;18.70;85.80;;;;;;5013265;28;20484;-78
2021/05/28 07:42:27;;;;;;;1.53;0.90;;;18.50;85.50;;;;;;5014119;28;20505;-79
2021/05/28 07:44:54;;;;;;;1.70;1.30;;;18.30;86.20;;;;;;5014050;28;20464;-79
2021/05/28 07:47:20;;;;;;;1.50;0.90;;;18.10;87.20;;;;;;5011529;28;20515;-79
2021/05/28 07:49:46;;;;;;;1.50;0.90;;;17.90;88.20;;;;;;5013278;28;20461;-78
2021/05/28 07:52:13;;;;;;;1.50;0.90;;;17.80;88.50;;;;;;5011871;28;20483;-78
2021/05/28 07:54:40;;;;;;;1.50;0.90;;;17.80;88.20;;;;;;5014837;28;20910;-78
2021/05/28 07:57:08;;;;;;;1.50;0.90;;;17.80;90.00;;;;;;5010839;28;20550;-78
2021/05/28 07:59:34;;;;;;;1.50;0.90;;;18.10;89.90;;;;;;5016670;28;20491;-78
2021/05/28 08:02:00;;;;;;;1.50;0.90;;;18.40;87.60;;;;;;5011413;28;20487;-78
2021/05/28 08:04:27;;;;;;;1.50;0.90;;;18.70;86.80;;;;;;5015268;28;20475;-79
2021/05/28 08:06:53;;;;;;;1.50;0.90;;;18.90;86.10;;;;;;5010149;28;20490;-78
2021/05/28 08:09:20;;;;;;;1.50;0.90;;;18.90;85.90;;;;;;5016975;28;20464;-78
2021/05/28 08:11:47;;;;;;;1.50;0.90;;;18.90;84.90;;;;;;5008274;28;20471;-78
2021/05/28 08:14:13;;;;;;;1.50;0.90;;;18.60;84.30;;;;;;5012733;28;20468;-78
2021/05/28 08:16:40;;;;;;;1.50;0.90;;;18.20;85.20;;;;;;5008128;28;20483;-78
2021/05/28 08:19:06;;;;;;;1.50;0.90;;;17.80;87.40;;;;;;5019070;28;20556;-78
2021/05/28 08:21:32;;;;;;;1.50;0.90;;;17.70;88.60;;;;;;5008036;28;20478;-78
2021/05/28 08:23:59;;;;;;;1.50;0.90;;;17.90;87.90;;;;;;5024608;28;20516;-78
2021/05/28 08:26:25;;;;;;;1.50;0.90;;;18.10;88.10;;;;;;5004604;28;20486;-77
2021/05/28 08:28:52;;;;;;;1.50;0.90;;;18.50;88.30;;;;;;5017503;28;20464;-78
2021/05/28 08:31:20;;;;;;;1.53;1.00;;;18.90;87.00;;;;;;5004875;28;20470;-77
2021/05/28 08:33:46;;;;;;;1.50;0.90;;;19.20;85.40;;;;;;5021253;28;20548;-78
2021/05/28 08:36:12;;;;;;;1.50;0.90;;;19.40;86.60;;;;;;5003872;28;20494;-79
2021/05/28 08:38:39;;;;;;;1.50;0.90;;;19.40;86.90;;;;;;5021570;28;20492;-78
2021/05/28 08:41:05;;;;;;;1.50;0.90;;;19.20;86.50;;;;;;5001925;28;20476;-78
2021/05/28 08:43:32;;;;;;;1.50;0.90;;;19.20;86.00;;;;;;5008453;28;20843;-78
2021/05/28 08:46:01;;;;;;;1.50;1.00;;;19.30;87.20;;;;;;5001835;28;20494;-77
2021/05/28 08:48:28;;;;;;;1.50;0.90;;;19.70;86.20;;;;;;5022041;28;20975;-77
2021/05/28 08:50:54;;;;;;;1.53;0.90;;;19.90;85.30;;;;;;5000637;28;20456;-77
2021/05/28 08:53:20;;;;;;;1.50;0.90;;;19.90;84.90;;;;;;5022447;28;20471;-78
2021/05/28 08:55:47;;;;;;;1.50;0.90;;;20.00;85.20;;;;;;5004433;28;20538;-78
2021/05/28 08:58:15;;;;;;;1.50;0.90;;;20.10;85.60;;;;;;5024092;28;20476;-77
2021/05/28 09:00:44;;;;;;;1.50;0.90;;;20.20;84.90;;;;;;5009959;28;20963;-79
2021/05/28 09:03:19;;;;;;;1.50;0.90;;;20.40;84.30;;;;;;4997723;28;20491;-79
2021/05/28 09:05:46;;;;;;;1.50;0.90;;;20.40;84.50;;;;;;5008700;28;20562;-78
2021/05/28 09:08:12;;;;;;;1.50;0.90;;;20.50;83.80;;;;;;5024848;28;20475;-77
2021/05/28 09:10:41;;;;;;;1.50;0.90;;;20.50;83.90;;;;;;5010239;28;20460;-78
2021/05/28 09:13:09;;;;;;;1.50;0.97;;;20.60;82.90;;;;;;5015498;28;20910;-79
2021/05/28 09:15:36;;;;;;;1.50;0.90;;;20.70;83.10;;;;;;5010286;28;20480;-78
2021/05/28 09:18:03;;;;;;;1.53;1.10;;;20.80;80.90;;;;;;5014935;28;20561;-78
2021/05/28 09:20:30;;;;;;;1.50;0.90;;;20.90;79.90;;;;;;5004839;28;20503;-78
2021/05/28 09:23:07;;;;;;;1.50;0.90;;;20.90;80.30;;;;;;5014325;28;20471;-78
2021/05/28 09:25:57;;;;;;;1.50;0.90;;;20.80;79.90;;;;;;5008832;28;20491;-78
2021/05/28 09:28:25;;;;;;;1.50;0.90;;;20.90;80.30;;;;;;4997513;28;20480;-79
2021/05/28 09:30:56;;;;;;;1.50;0.90;;;21.10;80.90;;;;;;4996851;28;21202;-78
2021/05/28 09:33:23;;;;;;;1.50;0.90;;;21.30;79.00;;;;;;5023729;28;20490;-78
2021/05/28 09:35:51;;;;;;;1.50;0.90;;;21.40;79.90;;;;;;5002141;28;21245;-78
2021/05/28 09:38:22;;;;;;;1.50;0.90;;;21.50;78.80;;;;;;5023662;28;20477;-79
2021/05/28 09:40:48;;;;;;;1.50;0.90;;;21.50;81.00;;;;;;5003220;28;20456;-78
2021/05/28 09:43:22;;;;;;;1.60;1.10;;;21.60;80.20;;;;;;5023429;28;20476;-78
2021/05/28 09:45:49;;;;;;;1.50;0.90;;;21.80;80.10;;;;;;4996797;28;20854;-78
2021/05/28 09:48:37;;;;;;;1.50;0.90;;;22.10;78.50;;;;;;5024871;28;20472;-78
2021/05/28 09:51:07;;;;;;;1.50;0.90;;;22.30;78.70;;;;;;5000013;28;20498;-79
2021/05/28 09:53:39;;;;;;;1.50;0.90;;;22.30;78.70;;;;;;5022946;28;20467;-78
2021/05/28 09:56:27;;;;;;;1.50;0.90;;;22.30;76.40;;;;;;5002561;28;20686;-77
2021/05/28 09:58:59;;;;;;;1.50;1.00;;;22.10;77.40;;;;;;5023732;28;20484;-78
2021/05/28 10:01:26;;;;;;;1.50;0.90;;;21.90;76.70;;;;;;5004478;28;20568;-78
2021/05/28 10:04:06;;;;;;;1.50;0.90;;;21.80;77.00;;;;;;5020117;28;20541;-78
2021/05/28 10:06:35;;;;;;;1.50;0.90;;;21.90;79.20;;;;;;5004476;28;20912;-78
2021/05/28 10:09:04;;;;;;;1.50;0.80;;;22.10;79.30;;;;;;5019228;28;20467;-77
2021/05/28 10:11:31;;;;;;;1.47;0.80;;;22.10;78.30;;;;;;5002737;28;20490;-78
2021/05/28 10:13:58;;;;;;;1.50;0.90;;;21.80;77.80;;;;;;5020472;28;20464;-78
2021/05/28 10:16:25;;;;;;;1.50;0.90;;;21.50;79.20;;;;;;5006084;28;20475;-79
2021/05/28 10:18:52;;;;;;;1.50;0.90;;;21.30;80.00;;;;;;5020028;28;21038;-78
2021/05/28 10:21:18;;;;;;;1.50;0.90;;;21.30;81.30;;;;;;5001762;28;20491;-78
2021/05/28 10:23:46;;;;;;;1.50;0.90;;;21.40;80.50;;;;;;5021238;28;20464;-78
2021/05/28 10:26:15;;;;;;;1.50;0.90;;;21.30;78.90;;;;;;5002604;28;20551;-78
2021/05/28 10:28:44;;;;;;;2.90;1.77;;;21.20;79.70;;;;;;5019915;28;20502;-78
2021/05/28 10:31:11;;;;;;;1.50;1.00;;;21.20;79.40;;;;;;5002558;28;20475;-78
2021/05/28 10:33:43;;;;;;;1.60;1.23;;;21.10;79.30;;;;;;5021668;28;20464;-79
2021/05/28 10:36:10;;;;;;;1.50;0.90;;;21.00;78.20;;;;;;5001799;28;20487;-78
2021/05/28 10:38:43;;;;;;;1.50;0.90;;;21.00;80.30;;;;;;5021874;28;20464;-78
2021/05/28 10:41:42;;;;;;;1.50;0.90;;;21.10;80.90;;;;;;4996549;28;20539;-78
2021/05/28 10:44:21;;;;;;;1.50;0.90;;;21.20;78.40;;;;;;4981697;28;20460;-78
2021/05/28 10:47:19;;;;;;;1.50;0.90;;;21.20;78.90;;;;;;5002421;28;20590;-78
2021/05/28 10:49:46;;;;;;;1.40;0.80;;;21.10;81.00;;;;;;5017639;28;20464;-78
2021/05/28 10:52:26;;;;;;;1.50;0.93;;;21.10;79.70;;;;;;5015223;28;20491;-78
2021/05/28 10:54:55;;;;;;;1.50;0.90;;;21.10;80.80;;;;;;5011513;28;20904;-78
2021/05/28 10:57:33;;;;;;;1.50;0.90;;;21.10;80.50;;;;;;5013830;28;20493;-78
2021/05/28 11:00:04;;;;;;;1.50;0.90;;;21.00;79.70;;;;;;5012146;28;20483;-78
2021/05/28 11:03:13;;;;;;;1.43;0.90;;;21.00;80.30;;;;;;5016052;28;20483;-78
2021/05/28 11:05:55;;;;;;;1.47;0.90;;;21.00;79.10;;;;;;5012076;28;20541;-78
2021/05/28 11:08:43;;;;;;;1.43;0.90;;;21.10;78.70;;;;;;5002415;28;20951;-78
2021/05/28 11:11:29;;;;;;;1.50;1.10;;;21.30;80.00;;;;;;5004601;28;20478;-78
2021/05/28 11:13:59;;;;;;;1.50;0.90;;;21.50;76.60;;;;;;5019433;28;20909;-78
2021/05/28 11:16:26;;;;;;;1.50;0.90;;;21.90;77.10;;;;;;5004377;28;20541;-78
2021/05/28 11:18:52;;;;;;;1.50;0.90;;;22.10;78.20;;;;;;5024260;28;20523;-78
2021/05/28 11:21:21;;;;;;;1.50;0.90;;;22.00;76.20;;;;;;5007080;28;20969;-78
2021/05/28 11:23:49;;;;;;;1.50;0.90;;;22.00;76.40;;;;;;5017396;28;20977;-78
2021/05/28 11:26:22;;;;;;;1.50;0.90;;;22.00;76.40;;;;;;5002959;28;20482;-78
2021/05/28 11:28:54;;;;;;;1.47;0.87;;;22.00;77.20;;;;;;5021710;28;20472;-78
2021/05/28 11:31:23;;;;;;;1.50;0.90;;;22.20;77.40;;;;;;5003463;28;20534;-78
2021/05/28 11:33:56;;;;;;;1.47;0.80;;;22.40;76.60;;;;;;5019022;28;20471;-78
2021/05/28 11:36:52;;;;;;;1.50;0.90;;;22.70;76.10;;;;;;5005165;28;20585;-78
2021/05/28 11:39:24;;;;;;;1.50;0.90;;;22.60;76.20;;;;;;5014506;28;20490;-78
2021/05/28 11:41:57;;;;;;;1.50;0.90;;;22.70;74.70;;;;;;5006712;28;20962;-78
2021/05/28 11:44:23;;;;;;;1.50;0.90;;;22.90;76.40;;;;;;5015468;28;20510;-78
2021/05/28 11:46:52;;;;;;;1.50;0.80;;;23.10;75.60;;;;;;5000318;28;21051;-78
2021/05/28 11:49:21;;;;;;;1.50;0.90;;;23.20;74.30;;;;;;5011649;28;20460;-78
2021/05/28 11:51:58;;;;;;;1.50;0.90;;;23.00;72.70;;;;;;5006924;28;20605;-78
2021/05/28 11:54:26;;;;;;;1.50;0.90;;;23.00;75.20;;;;;;5020102;28;20467;-78
2021/05/28 11:57:04;;;;;;;1.80;1.10;;;23.30;73.50;;;;;;5008578;28;20566;-77
2021/05/28 12:00:06;;;;;;;1.47;0.80;;;23.50;71.70;;;;;;5014901;28;20484;-78
2021/05/28 12:02:43;;;;;;;1.50;0.90;;;23.40;72.70;;;;;;5012549;28;20470;-78
2021/05/28 12:05:24;;;;;;;1.50;0.90;;;23.10;73.80;;;;;;5010303;28;20475;-78
2021/05/28 12:07:51;;;;;;;1.50;0.90;;;23.00;72.90;;;;;;5012108;28;20475;-77
2021/05/28 12:10:19;;;;;;;1.50;0.90;;;22.90;74.30;;;;;;5009958;28;21167;-78
2021/05/28 12:12:50;;;;;;;1.50;1.00;;;22.80;74.20;;;;;;5011084;28;20493;-78
2021/05/28 12:15:17;;;;;;;1.50;0.90;;;22.70;73.90;;;;;;5010212;28;20480;-78
2021/05/28 12:17:44;;;;;;;1.50;0.90;;;22.60;74.50;;;;;;5015699;28;20481;-78
2021/05/28 12:20:16;;;;;;;1.50;0.90;;;22.50;74.40;;;;;;5010919;28;20499;-78
2021/05/28 12:23:00;;;;;;;1.50;0.90;;;22.40;74.50;;;;;;5014071;28;20574;-77
2021/05/28 12:25:27;;;;;;;1.50;0.90;;;22.30;73.40;;;;;;5009700;28;20476;-78
2021/05/28 12:27:53;;;;;;;1.50;0.90;;;22.20;74.40;;;;;;4999609;28;20480;-78
2021/05/28 12:30:25;;;;;;;1.50;0.90;;;22.30;76.90;;;;;;5008714;28;20464;-78
2021/05/28 12:32:53;;;;;;;1.50;0.90;;;22.40;74.20;;;;;;5003413;28;20491;-77
2021/05/28 12:35:21;;;;;;;1.50;0.90;;;22.60;74.80;;;;;;5009345;28;20558;-78
2021/05/28 12:38:11;;;;;;;1.50;0.90;;;22.90;75.30;;;;;;5010752;28;20513;-77
2021/05/28 12:40:43;;;;;;;1.50;0.90;;;23.20;74.30;;;;;;5007706;28;21003;-78
2021/05/28 12:43:10;;;;;;;1.50;0.90;;;23.50;74.00;;;;;;4998811;28;20511;-77
2021/05/28 12:45:41;;;;;;;1.50;0.90;;;23.80;71.20;;;;;;5009000;28;20979;-77
2021/05/28 12:48:11;;;;;;;1.50;0.90;;;23.90;71.20;;;;;;5012321;28;20491;-77
2021/05/28 12:50:39;;;;;;;1.50;0.90;;;23.80;70.10;;;;;;5009593;28;20452;-77
2021/05/28 12:53:11;;;;;;;1.50;0.90;;;23.80;70.60;;;;;;5011336;28;20482;-78
2021/05/28 12:55:39;;;;;;;1.50;0.90;;;23.70;70.90;;;;;;5008913;28;20535;-77
2021/05/28 12:58:20;;;;;;;1.60;1.27;;;23.60;69.90;;;;;;5011640;28;21067;-78